Latest Weather Observations for Nerriga

IDN60801

Issued at 7:33 am EST Tuesday 26 July 2016 (issued every 30 minutes, with the page automatically refreshed every 10 minutes)

About weather observations | Map of weather stations | Latest weather observations for NSW | Other Formats
Station Details ID: 069128 Name: NERRIGA AWS Lat: -35.11 Lon: 150.08 Height: 622.0 m
Data from the previous 72 hours. | See also: Recent months at Nerriga
Date/Time
EST
Temp
°C
App
Temp
°C
Dew
Point
°C
Rel
Hum
%
Delta-T
°C
Wind Press
QNH
hPa
Press
MSL
hPa
Rain since
9am
mm
Dir  Spd
km/h
Gust
km/h
Spd
kts
Gust
kts
26/07:30am 5.4 -1.7 1.1 74 1.8 WNW 28 37 15 20 1013.6 1014.6 0.0
26/07:00am 5.7 -0.1 2.2 78 1.5 W 22 37 12 20 1013.1 1014.1 0.0
26/06:30am 5.9 -1.8 2.5 79 1.4 W 32 50 17 27 1012.6 1013.6 0.0
26/06:02am 6.0 -1.8 2.8 80 1.4 WNW 33 56 18 30 1011.3 1012.3 0.0
26/06:00am 6.0 -1.8 2.8 80 1.4 WNW 33 50 18 27 1011.2 1012.2 0.0
26/05:30am 6.1 -3.5 3.4 83 1.2 WNW 43 69 23 37 1009.9 1010.9 0.0
26/05:00am 6.5 -3.2 3.8 83 1.2 WNW 44 69 24 37 1009.6 1010.6 0.0
26/04:30am 6.8 -5.2 3.8 81 1.3 WNW 56 83 30 45 1009.0 1009.9 0.0
26/04:00am 6.8 -4.9 3.4 79 1.5 WNW 54 80 29 43 1008.8 1009.7 0.0
26/03:30am 6.4 -3.8 3.0 79 1.5 WNW 46 72 25 39 1008.8 1009.7 0.0
26/03:01am 6.5 -3.2 2.8 77 1.6 WNW 43 61 23 33 1008.9 1009.8 0.0
26/03:00am 6.6 -3.3 2.9 77 1.6 WNW 44 61 24 33 1008.9 1009.8 0.0
26/02:30am 6.8 -2.9 3.1 77 1.6 WNW 43 69 23 37 1009.0 1009.9 0.0
26/02:00am 6.7 -3.9 3.1 78 1.6 NW 48 78 26 42 1009.1 1010.0 0.0
26/01:30am 6.6 -4.0 3.0 78 1.6 NW 48 72 26 39 1008.8 1009.7 0.0
26/01:10am 6.6 -3.7 2.9 77 1.6 NW 46 65 25 35 1009.0 1009.9 0.0
26/01:00am 6.6 -4.4 2.9 77 1.6 NW 50 67 27 36 1009.0 1009.9 0.0
26/12:30am 6.5 -3.2 2.8 77 1.6 NW 43 74 23 40 1009.7 1010.7 0.0
26/12:26am 6.5 -2.5 2.6 76 1.7 NW 39 74 21 40 1009.5 1010.5 0.0
26/12:00am 6.5 -1.1 2.6 76 1.7 NW 32 50 17 27 1010.7 1011.7 0.0
 
Date/Time
EST
Temp
°C
App
Temp
°C
Dew
Point
°C
Rel
Hum
%
Delta-T
°C
Wind Press
QNH
hPa
Press
MSL
hPa
Rain since
9am
mm
Dir  Spd
km/h
Gust
km/h
Spd
kts
Gust
kts
25/11:30pm 6.5 -1.7 2.8 77 1.6 WNW 35 56 19 30 1010.8 1011.8 0.0
25/11:00pm 6.3 -1.4 2.2 75 1.7 WNW 32 59 17 32 1010.5 1011.4 0.0
25/10:31pm 6.2 -1.5 2.3 76 1.7 WNW 32 54 17 29 1010.4 1011.3 0.0
25/10:30pm 6.1 -1.6 2.2 76 1.7 WNW 32 48 17 26 1010.6 1011.5 0.0
25/10:00pm 6.1 -0.9 2.0 75 1.7 WNW 28 56 15 30 1010.6 1011.5 0.0
25/09:30pm 6.1 -2.2 2.2 76 1.7 NW 35 57 19 31 1010.7 1011.7 0.0
25/09:01pm 6.1 -3.3 2.2 76 1.7 NW 41 61 22 33 1010.7 1011.7 0.0
25/09:00pm 6.2 -3.6 2.3 76 1.7 NW 43 61 23 33 1010.7 1011.7 0.0
25/08:30pm 6.4 -2.8 3.4 81 1.3 NW 41 59 22 32 1010.5 1011.4 0.0
25/08:00pm 6.5 -2.4 3.1 79 1.5 WNW 39 57 21 31 1010.8 1011.8 0.0
25/07:30pm 6.4 -2.1 2.9 78 1.5 WNW 37 57 20 31 1010.8 1011.8 0.0
25/07:00pm 6.7 -1.4 3.5 80 1.4 WNW 35 61 19 33 1010.8 1011.8 0.0
25/06:30pm 6.7 -1.3 3.7 81 1.3 NW 35 54 19 29 1010.3 1011.2 0.0
25/06:02pm 6.7 -0.9 3.9 82 1.2 NW 33 52 18 28 1010.3 1011.2 0.0
25/06:00pm 6.8 -1.2 3.8 81 1.3 NW 35 52 19 28 1010.0 1011.0 0.0
25/05:49pm 6.8 -1.2 3.6 80 1.4 NW 35 54 19 29 1009.8 1010.8 0.0
25/05:30pm 6.7 -0.8 3.7 81 1.3 NW 32 44 17 24 1009.7 1010.7 0.0
25/05:00pm 6.9 -0.6 3.5 79 1.5 WNW 32 44 17 24 1010.0 1011.0 0.0
25/04:30pm 7.3 -0.4 3.2 75 1.8 WNW 33 52 18 28 1010.3 1011.2 0.0
25/04:22pm 7.4 0.6 3.3 75 1.8 WNW 28 46 15 25 1010.7 1011.7 0.0
25/04:00pm 7.8 0.2 3.7 75 1.8 NW 33 52 18 28 1011.0 1012.0 0.0
25/03:30pm 8.2 -1.1 2.9 69 2.3 WNW 41 67 22 36 1009.9 1010.9 0.0
25/03:01pm 8.5 -0.8 2.7 67 2.5 WNW 41 61 22 33 1010.0 1011.0 0.0
25/03:00pm 8.8 -0.5 3.2 68 2.5 WNW 41 54 22 29 1010.3 1011.2 0.0
25/02:30pm 8.9 0.3 2.7 65 2.7 WNW 37 57 20 31 1010.2 1011.1 0.0
25/02:02pm 9.2 1.0 2.5 63 2.9 WNW 35 56 19 30 1010.3 1011.2 0.0
25/02:00pm 9.4 1.3 3.2 65 2.8 WNW 35 52 19 28 1010.4 1011.3 0.0
25/01:50pm 9.0 0.3 2.1 62 3.0 WNW 37 56 20 30 1010.0 1011.0 0.0
25/01:30pm 8.7 0.8 2.3 64 2.8 WNW 33 48 18 26 1010.8 1011.8 0.0
25/01:05pm 8.9 0.3 2.7 65 2.7 WNW 37 56 20 30 1010.9 1011.9 0.0
25/01:00pm 8.3 -0.8 2.1 65 2.7 WNW 39 56 21 30 1010.9 1011.9 0.0
25/12:32pm 8.9 1.3 2.9 66 2.7 WNW 32 50 17 27 1011.3 1012.3 0.0
25/12:30pm 9.3 1.7 3.9 69 2.5 WNW 33 50 18 27 1011.2 1012.2 0.0
25/12:00pm 8.8 2.1 3.8 71 2.3 WNW 28 43 15 23 1011.6 1012.6 0.0
25/11:30am 7.2 0.7 2.7 73 2.0 WNW 26 39 14 21 1011.7 1012.7 0.0
25/11:00am 7.0 -0.8 2.9 75 1.8 WNW 33 48 18 26 1011.9 1012.8 0.0
25/10:30am 6.8 -0.8 2.7 75 1.8 WNW 32 43 17 23 1011.6 1012.6 0.0
25/10:18am 6.7 -0.5 2.8 76 1.7 WNW 30 50 16 27 1011.6 1012.6 0.0
25/10:00am 6.7 0.7 3.1 78 1.6 WNW 24 39 13 21 1011.6 1012.6 0.0
25/09:34am 6.1 -1.5 2.6 78 1.5 WNW 32 52 17 28 1011.1 1012.1 0.0
25/09:30am 6.1 -1.2 2.6 78 1.5 WNW 30 41 16 22 1011.0 1012.0 0.0
25/09:22am 6.1 -1.5 2.6 78 1.5 WNW 32 52 17 28 1010.7 1011.7 0.0
25/09:00am 6.1 -1.5 3.1 81 1.3 NW 32 48 17 26 1010.5 1011.4 2.2
25/08:30am 5.6 -2.5 3.1 84 1.1 WNW 35 54 19 29 1009.9 1010.9 2.2
25/08:23am 5.4 -2.2 2.8 83 1.1 WNW 32 50 17 27 1009.7 1010.7 2.2
25/08:00am 5.0 -1.8 2.9 86 0.9 WNW 28 41 15 22 1009.6 1010.6 2.2
25/07:30am 4.7 -1.4 2.7 87 0.8 WNW 24 35 13 19 1009.7 1010.7 2.2
25/07:00am 4.7 -2.9 2.6 86 0.9 WNW 32 50 17 27 1008.8 1009.7 2.2
25/06:36am 4.7 -3.5 2.9 88 0.8 NW 35 54 19 29 1008.1 1009.1 2.2
25/06:30am 4.6 -3.0 2.9 89 0.7 NW 32 44 17 24 1008.5 1009.4 2.2
25/06:00am 4.4 -2.0 3.1 91 0.6 WNW 26 41 14 22 1008.5 1009.4 2.2
25/05:30am 4.2 -1.6 2.2 87 0.8 WNW 22 33 12 18 1008.3 1009.3 2.2
25/05:00am 3.9 -2.7 1.9 87 0.8 NW 26 39 14 21 1008.0 1009.0 2.2
25/04:30am 3.9 -2.0 1.6 85 0.9 WNW 22 30 12 16 1008.1 1009.1 2.2
25/04:00am 4.1 -3.3 2.1 87 0.8 WNW 30 43 16 23 1008.2 1009.2 2.2
25/03:30am 4.2 -1.2 2.2 87 0.8 WNW 20 32 11 17 1008.2 1009.2 2.2
25/03:00am 4.5 -0.7 3.5 93 0.4 WNW 20 32 11 17 1008.6 1009.5 2.2
25/02:30am 4.1 -1.0 2.8 91 0.5 WNW 19 26 10 14 1008.8 1009.7 2.2
25/02:00am 4.2 -1.9 3.0 92 0.5 WNW 24 39 13 21 1009.0 1009.9 2.2
25/01:41am 4.6 -0.3 4.3 98 0.1 NW 19 41 10 22 1008.8 1009.7 2.2
25/01:30am 4.1 0.3 3.8 98 0.1 NNW 13 22 7 12 1008.5 1009.4 1.6
25/01:00am 3.7 0.2 3.6 99 0.0 N 11 15 6 8 1008.7 1009.6 1.6
25/12:30am 3.0 -1.0 3.0 100 0.0 N 13 19 7 10 1008.9 1009.8 1.6
25/12:00am 3.0 -0.6 3.0 100 0.0 NNW 11 15 6 8 1009.2 1010.1 1.6
 
Date/Time
EST
Temp
°C
App
Temp
°C
Dew
Point
°C
Rel
Hum
%
Delta-T
°C
Wind Press
QNH
hPa
Press
MSL
hPa
Rain since
9am
mm
Dir  Spd
km/h
Gust
km/h
Spd
kts
Gust
kts
24/11:30pm 3.1 -1.2 3.1 100 0.0 NNW 15 19 8 10 1009.8 1010.8 1.6
24/11:00pm 2.8 -0.8 2.8 100 0.0 NNW 11 17 6 9 1009.9 1010.9 1.6
24/10:30pm 2.4 -1.0 2.1 98 0.1 NNW 9 17 5 9 1010.0 1011.0 1.6
24/10:00pm 2.7 -2.6 2.1 96 0.2 NW 19 28 10 15 1010.5 1011.4 1.6
24/09:32pm 3.4 -3.6 2.2 92 0.5 W 28 48 15 26 1011.1 1012.1 0.8
24/09:30pm 3.4 -2.8 1.9 90 0.6 W 24 43 13 23 1011.2 1012.2 0.8
24/09:00pm 4.0 0.1 1.0 81 1.2 NW 11 17 6 9 1010.6 1011.5 0.0
24/08:30pm 3.7 -0.3 0.4 79 1.3 NW 11 15 6 8 1010.8 1011.8 0.0
24/08:00pm 4.4 0.4 0.6 76 1.5 NW 11 17 6 9 1010.8 1011.8 0.0
24/07:30pm 4.4 0.4 0.2 74 1.7 NNW 11 17 6 9 1010.8 1011.8 0.0
24/07:00pm 4.8 0.4 0.2 72 1.8 NNW 13 17 7 9 1010.8 1011.8 0.0
24/06:30pm 5.4 0.6 0.4 70 2.0 NW 15 19 8 10 1010.6 1011.5 0.0
24/06:00pm 5.2 0.0 0.0 69 2.1 WNW 17 22 9 12 1010.3 1011.2 0.0
24/05:30pm 5.1 -0.1 -0.1 69 2.1 WNW 17 20 9 11 1009.9 1010.9 0.0
24/05:00pm 6.0 1.1 -0.5 63 2.6 WNW 15 26 8 14 1009.9 1010.9 0.0
24/04:30pm 6.4 -0.7 -1.0 59 2.9 WNW 26 39 14 21 1010.2 1011.1 0.0
24/04:00pm 7.1 0.3 -1.8 53 3.5 W 24 33 13 18 1009.6 1010.6 0.0
24/03:30pm 7.1 -0.5 -2.1 52 3.5 W 28 43 15 23 1009.8 1010.8 0.0
24/03:00pm 6.7 -0.9 -2.2 53 3.4 W 28 37 15 20 1009.9 1010.9 0.0
24/02:30pm 6.6 -2.0 -2.8 51 3.5 WNW 33 48 18 26 1010.5 1011.4 0.0
24/02:00pm 7.3 -0.2 -1.4 54 3.4 WNW 28 39 15 21 1010.9 1011.9 0.0
24/01:40pm 7.3 -0.5 -1.1 55 3.3 NW 30 50 16 27 1010.7 1011.7 0.0
24/01:30pm 7.7 0.3 -0.5 56 3.3 WNW 28 46 15 25 1011.1 1012.1 0.0
24/01:00pm 7.5 0.5 -0.2 58 3.1 WNW 26 35 14 19 1011.7 1012.7 0.0
24/12:30pm 6.8 -1.4 -1.3 56 3.2 WNW 32 48 17 26 1012.4 1013.4 0.0
24/12:00pm 7.6 1.1 0.1 59 3.1 WNW 24 41 13 22 1012.8 1013.8 0.0
24/11:30am 7.7 1.2 0.0 58 3.1 W 24 35 13 19 1013.2 1014.2 0.0
24/11:00am 6.9 1.6 -0.5 59 3.0 WNW 17 22 9 12 1013.6 1014.6 0.0
24/10:30am 5.8 1.0 0.2 67 2.3 NW 15 19 8 10 1013.9 1014.9 0.0
24/10:00am 4.7 0.2 -0.5 69 2.0 WNW 13 17 7 9 1014.1 1015.1 0.0
24/09:30am 3.6 0.3 0.3 79 1.3 WNW 7 11 4 6 1014.3 1015.3 0.0
24/09:00am 2.1 -1.3 -0.3 84 0.9 WNW 7 9 4 5 1014.3 1015.3 0.0
24/08:30am 1.4 -1.7 -0.1 90 0.6 WNW 6 7 3 4 1014.2 1015.2 0.0
24/08:00am 0.1 -2.0 -0.9 93 0.4 CALM 0 6 0 3 1014.1 1015.1 0.0
24/07:30am -0.9 -3.8 -1.0 99 0.0 WNW 4 6 2 3 1013.6 1014.6 0.0
24/07:00am -2.4 -4.8 -3.2 94 0.2 CALM 0 0 0 0 1013.4 1014.5 0.0
24/06:30am -1.5 -4.2 -2.1 96 0.1 WNW 2 4 1 2 1013.3 1014.4 0.0
24/06:00am -1.6 -4.7 -2.6 93 0.3 WNW 4 4 2 2 1013.0 1014.0 0.0
24/05:30am -0.6 -3.6 -1.7 92 0.4 WNW 4 6 2 3 1013.2 1014.2 0.0
24/05:00am -0.5 -3.9 -1.8 91 0.4 WNW 6 7 3 4 1013.0 1014.0 0.0
24/04:30am 0.2 -3.1 -0.9 92 0.4 WNW 6 7 3 4 1012.8 1013.8 0.0
24/04:00am -0.4 -3.8 -2.0 89 0.6 WNW 6 7 3 4 1012.8 1013.8 0.0
24/03:30am 0.2 -2.4 -1.5 88 0.6 WNW 2 7 1 4 1012.7 1013.7 0.0
24/03:00am 0.6 -2.4 -1.8 84 0.9 WNW 4 7 2 4 1012.3 1013.3 0.0
24/02:30am 0.5 -2.1 -1.9 84 0.9 WNW 2 4 1 2 1012.3 1013.3 0.0
24/02:00am 1.5 -2.0 -1.6 80 1.1 WNW 7 11 4 6 1012.4 1013.4 0.0
24/01:30am 2.3 -2.0 -1.5 76 1.4 WNW 11 15 6 8 1012.2 1013.2 0.0
24/01:00am 2.3 -2.0 -1.3 77 1.3 WNW 11 15 6 8 1012.2 1013.2 0.0
24/12:30am 2.7 -2.0 -1.5 74 1.6 WNW 13 20 7 11 1012.0 1012.9 0.0
24/12:00am 2.8 -3.9 -1.4 74 1.6 WNW 24 33 13 18 1011.6 1012.6 0.0
 
Date/Time
EST
Temp
°C
App
Temp
°C
Dew
Point
°C
Rel
Hum
%
Delta-T
°C
Wind Press
QNH
hPa
Press
MSL
hPa
Rain since
9am
mm
Dir  Spd
km/h
Gust
km/h
Spd
kts
Gust
kts
23/11:30pm 3.1 -2.9 -1.6 71 1.8 WNW 20 32 11 17 1011.6 1012.6 0.0
23/11:00pm 3.4 -3.0 -1.7 69 1.9 WNW 22 35 12 19 1011.3 1012.3 0.0
23/10:30pm 3.8 -3.7 -1.7 67 2.1 WNW 28 46 15 25 1010.9 1011.9 0.0
23/10:27pm 3.8 -3.7 -1.7 67 2.1 WNW 28 46 15 25 1010.8 1011.8 0.0
23/10:00pm 4.1 -4.4 -2.1 64 2.3 WNW 33 44 18 24 1010.5 1011.4 0.0
23/09:30pm 4.3 -3.2 -1.7 65 2.3 WNW 28 44 15 24 1010.3 1011.2 0.0
23/09:03pm 4.5 -3.4 -1.9 63 2.4 W 30 50 16 27 1010.0 1011.0 0.0
23/09:00pm 4.5 -3.4 -1.7 64 2.3 W 30 48 16 26 1010.2 1011.1 0.0
23/08:30pm 4.4 -3.2 -2.2 62 2.5 WNW 28 48 15 26 1009.9 1010.9 0.0
23/08:00pm 4.6 -4.3 -2.0 62 2.5 WNW 35 57 19 31 1009.1 1010.0 0.0
23/07:43pm 4.6 -4.3 -1.6 64 2.4 WNW 35 56 19 30 1009.0 1009.9 0.0
23/07:30pm 4.7 -4.1 -1.3 65 2.3 WNW 35 52 19 28 1008.7 1009.6 0.0
23/07:04pm 5.0 -4.6 -1.2 64 2.4 WNW 39 57 21 31 1008.0 1009.0 0.0
23/07:00pm 4.8 -4.3 -0.8 67 2.2 WNW 37 54 20 29 1008.2 1009.2 0.0
23/06:44pm 4.9 -3.5 -0.9 66 2.2 WNW 33 54 18 29 1007.9 1008.8 0.0
23/06:30pm 5.0 -4.1 -0.8 66 2.3 WNW 37 52 20 28 1007.7 1008.6 0.0
23/06:01pm 5.4 -6.4 -2.0 59 2.8 WNW 50 69 27 37 1006.5 1007.4 0.0
23/06:00pm 5.5 -6.6 -1.9 59 2.8 WNW 52 69 28 37 1006.4 1007.3 0.0
23/05:32pm 5.3 -5.2 -0.9 64 2.4 WNW 44 63 24 34 1006.3 1007.2 0.0
23/05:30pm 5.4 -5.1 -0.8 64 2.4 WNW 44 61 24 33 1006.3 1007.2 0.0
23/05:19pm 5.5 -5.0 -0.8 64 2.5 WNW 44 65 24 35 1006.4 1007.3 0.0
23/05:00pm 5.7 -4.8 -1.2 61 2.7 WNW 44 59 24 32 1006.0 1006.9 0.0
23/04:34pm 6.2 -4.1 -1.0 60 2.8 W 43 61 23 33 1006.1 1007.0 0.0
23/04:30pm 6.3 -4.2 -1.1 59 2.9 W 44 63 24 34 1006.1 1007.0 0.0
23/04:12pm 6.5 -4.2 0.0 63 2.6 W 46 67 25 36 1006.0 1006.9 0.0
23/04:00pm 6.9 -3.3 1.2 67 2.4 W 44 61 24 33 1005.8 1006.7 0.0
23/03:30pm 7.0 -4.8 0.2 62 2.8 W 52 76 28 41 1005.3 1006.2 0.0
23/03:00pm 8.1 -1.2 0.8 60 3.1 W 39 61 21 33 1004.8 1005.7 0.0
23/02:30pm 8.2 -2.3 1.6 63 2.8 W 46 72 25 39 1004.0 1004.9 0.0
23/02:00pm 7.7 -2.3 2.0 67 2.5 WNW 44 80 24 43 1003.4 1004.2 0.0
23/01:30pm 8.0 -2.0 2.3 67 2.5 WNW 44 67 24 36 1002.9 1003.8 0.0
23/01:00pm 7.7 -4.5 2.4 69 2.3 WNW 56 78 30 42 1002.5 1003.3 0.0
23/12:30pm 7.7 -1.9 3.4 74 1.9 W 43 67 23 36 1002.9 1003.8 0.0
23/12:00pm 8.1 -2.1 3.4 72 2.1 WNW 46 78 25 42 1002.6 1003.5 0.0
23/11:30am 7.2 -3.1 2.5 72 2.0 WNW 46 69 25 37 1002.2 1003.0 0.0
23/11:00am 7.2 -2.7 2.7 73 2.0 WNW 44 63 24 34 1002.5 1003.3 0.0
23/10:36am 6.9 -2.5 2.6 74 1.9 WNW 41 61 22 33 1002.4 1003.2 0.0
23/10:30am 6.8 -2.6 2.5 74 1.8 WNW 41 59 22 32 1002.5 1003.3 0.0
23/10:00am 6.4 -2.9 2.7 77 1.6 WNW 41 61 22 33 1002.4 1003.2 0.0
23/09:58am 6.3 -3.0 2.8 78 1.5 WNW 41 61 22 33 1002.4 1003.2 0.0
23/09:30am 6.3 -3.6 2.6 77 1.6 WNW 44 59 24 32 1002.5 1003.3 0.0
23/09:02am 6.3 -2.0 2.2 75 1.7 WNW 35 54 19 29 1002.3 1003.1 0.0
23/09:00am 6.3 -2.3 2.4 76 1.7 WNW 37 54 20 29 1002.2 1003.0 11.8
23/08:30am 6.1 -3.0 2.0 75 1.7 WNW 39 65 21 35 1001.7 1002.5 11.8
23/08:00am 5.9 -2.8 1.8 75 1.7 WNW 37 57 20 31 1000.9 1001.7 11.8

Other Formats:

Comma delimited format used in spreadsheet applications
http://www.bom.gov.au/fwo/IDN60801/IDN60801.94943.axf

JavaScript Object Notation format (JSON) in row-major order
http://www.bom.gov.au/fwo/IDN60801/IDN60801.94943.json